sensor_id;sensor_type;location;lat;lon;timestamp;pressure;altitude;pressure_sealevel;temperature;humidity
73862;BME280;63459;51.456;-0.916;2023-02-26T00:01:13;101721.72;;;16.87;21.58
73862;BME280;63459;51.456;-0.916;2023-02-26T00:03:37;101719.14;;;16.95;21.48
73862;BME280;63459;51.456;-0.916;2023-02-26T00:06:03;101719.19;;;17.08;21.54
73862;BME280;63459;51.456;-0.916;2023-02-26T00:08:28;101723.87;;;16.82;21.58
73862;BME280;63459;51.456;-0.916;2023-02-26T00:10:53;101726.25;;;16.78;21.60
73862;BME280;63459;51.456;-0.916;2023-02-26T00:13:19;101724.97;;;16.96;21.62
73862;BME280;63459;51.456;-0.916;2023-02-26T00:15:44;101727.36;;;16.93;21.64
73862;BME280;63459;51.456;-0.916;2023-02-26T00:18:13;101723.26;;;16.94;21.62
73862;BME280;63459;51.456;-0.916;2023-02-26T00:20:36;101722.53;;;16.89;21.65
73862;BME280;63459;51.456;-0.916;2023-02-26T00:25:26;101723.07;;;16.86;21.64
73862;BME280;63459;51.456;-0.916;2023-02-26T00:27:52;101722.00;;;16.64;21.63
73862;BME280;63459;51.456;-0.916;2023-02-26T00:30:18;101728.31;;;16.59;21.66
73862;BME280;63459;51.456;-0.916;2023-02-26T00:32:42;101727.44;;;16.33;21.70
73862;BME280;63459;51.456;-0.916;2023-02-26T00:35:12;101725.12;;;16.99;21.68
73862;BME280;63459;51.456;-0.916;2023-02-26T00:37:47;101725.00;;;16.72;21.72
73862;BME280;63459;51.456;-0.916;2023-02-26T00:40:09;101734.19;;;16.94;21.70
73862;BME280;63459;51.456;-0.916;2023-02-26T00:44:51;101731.72;;;16.73;21.64
73862;BME280;63459;51.456;-0.916;2023-02-26T00:47:23;101728.48;;;17.09;21.66
73862;BME280;63459;51.456;-0.916;2023-02-26T00:49:50;101737.83;;;16.91;21.61
73862;BME280;63459;51.456;-0.916;2023-02-26T00:52:12;101737.98;;;16.46;21.60
73862;BME280;63459;51.456;-0.916;2023-02-26T00:54:31;101732.38;;;16.46;21.58
73862;BME280;63459;51.456;-0.916;2023-02-26T00:56:58;101734.32;;;16.86;21.60
73862;BME280;63459;51.456;-0.916;2023-02-26T00:59:23;101735.63;;;17.05;21.61
73862;BME280;63459;51.456;-0.916;2023-02-26T01:01:47;101739.15;;;16.33;21.65
73862;BME280;63459;51.456;-0.916;2023-02-26T01:04:14;101744.18;;;16.76;21.66
73862;BME280;63459;51.456;-0.916;2023-02-26T01:06:42;101734.65;;;16.55;21.65
73862;BME280;63459;51.456;-0.916;2023-02-26T01:09:11;101735.48;;;16.12;21.65
73862;BME280;63459;51.456;-0.916;2023-02-26T01:11:29;101739.44;;;16.33;21.67
73862;BME280;63459;51.456;-0.916;2023-02-26T01:13:55;101740.50;;;16.50;21.71
73862;BME280;63459;51.456;-0.916;2023-02-26T01:16:24;101740.72;;;16.30;21.70
73862;BME280;63459;51.456;-0.916;2023-02-26T01:18:49;101732.39;;;16.75;21.70
73862;BME280;63459;51.456;-0.916;2023-02-26T01:21:16;101729.53;;;16.53;21.72
73862;BME280;63459;51.456;-0.916;2023-02-26T01:23:39;101735.67;;;16.48;21.76
73862;BME280;63459;51.456;-0.916;2023-02-26T01:26:04;101737.08;;;16.46;21.77
73862;BME280;63459;51.456;-0.916;2023-02-26T01:28:27;101736.30;;;16.40;21.81
73862;BME280;63459;51.456;-0.916;2023-02-26T01:30:55;101743.04;;;15.97;21.82
73862;BME280;63459;51.456;-0.916;2023-02-26T01:33:22;101742.43;;;16.61;21.82
73862;BME280;63459;51.456;-0.916;2023-02-26T01:35:47;101746.07;;;16.19;21.81
73862;BME280;63459;51.456;-0.916;2023-02-26T01:38:17;101744.65;;;16.42;21.80
73862;BME280;63459;51.456;-0.916;2023-02-26T01:40:47;101744.17;;;15.95;21.82
73862;BME280;63459;51.456;-0.916;2023-02-26T01:43:04;101740.91;;;16.33;21.86
73862;BME280;63459;51.456;-0.916;2023-02-26T01:48:01;101736.45;;;16.09;21.92
73862;BME280;63459;51.456;-0.916;2023-02-26T01:50:19;101733.09;;;16.46;21.98
73862;BME280;63459;51.456;-0.916;2023-02-26T01:55:07;101732.48;;;16.33;22.10
73862;BME280;63459;51.456;-0.916;2023-02-26T01:57:32;101739.80;;;16.39;22.05
73862;BME280;63459;51.456;-0.916;2023-02-26T01:59:58;101739.17;;;16.14;22.06
73862;BME280;63459;51.456;-0.916;2023-02-26T02:02:23;101736.83;;;16.58;22.06
73862;BME280;63459;51.456;-0.916;2023-02-26T02:04:48;101737.52;;;15.94;22.06
73862;BME280;63459;51.456;-0.916;2023-02-26T02:07:15;101745.19;;;16.36;22.07
73862;BME280;63459;51.456;-0.916;2023-02-26T02:09:40;101741.22;;;16.14;22.05
73862;BME280;63459;51.456;-0.916;2023-02-26T02:14:38;101755.09;;;16.36;22.03
73862;BME280;63459;51.456;-0.916;2023-02-26T02:16:59;101755.60;;;16.31;22.07
73862;BME280;63459;51.456;-0.916;2023-02-26T02:21:53;101756.89;;;16.07;22.07
73862;BME280;63459;51.456;-0.916;2023-02-26T02:24:14;101765.47;;;16.31;22.03
73862;BME280;63459;51.456;-0.916;2023-02-26T02:29:18;101769.54;;;16.07;22.02
73862;BME280;63459;51.456;-0.916;2023-02-26T02:31:32;101769.03;;;16.22;22.06
73862;BME280;63459;51.456;-0.916;2023-02-26T02:34:02;101774.95;;;16.02;22.03
73862;BME280;63459;51.456;-0.916;2023-02-26T02:36:27;101770.65;;;16.18;22.06
73862;BME280;63459;51.456;-0.916;2023-02-26T02:38:48;101771.30;;;15.99;22.04
73862;BME280;63459;51.456;-0.916;2023-02-26T02:43:36;101779.07;;;15.52;22.05
73862;BME280;63459;51.456;-0.916;2023-02-26T02:46:04;101776.35;;;16.17;22.07
73862;BME280;63459;51.456;-0.916;2023-02-26T02:48:29;101787.47;;;16.37;22.09
73862;BME280;63459;51.456;-0.916;2023-02-26T02:50:56;101779.63;;;15.70;22.13
73862;BME280;63459;51.456;-0.916;2023-02-26T02:53:20;101786.33;;;16.36;22.12
73862;BME280;63459;51.456;-0.916;2023-02-26T02:55:46;101786.38;;;15.96;22.12
73862;BME280;63459;51.456;-0.916;2023-02-26T02:58:11;101786.43;;;15.82;22.06
73862;BME280;63459;51.456;-0.916;2023-02-26T03:00:37;101788.14;;;16.47;22.07
73862;BME280;63459;51.456;-0.916;2023-02-26T03:03:04;101787.45;;;16.26;22.08
73862;BME280;63459;51.456;-0.916;2023-02-26T03:05:25;101790.97;;;16.04;22.09
73862;BME280;63459;51.456;-0.916;2023-02-26T03:07:54;101789.38;;;16.26;22.13
73862;BME280;63459;51.456;-0.916;2023-02-26T03:10:16;101790.32;;;16.49;22.14
73862;BME280;63459;51.456;-0.916;2023-02-26T03:12:40;101791.77;;;16.19;22.08
73862;BME280;63459;51.456;-0.916;2023-02-26T03:15:07;101792.63;;;16.47;22.08
73862;BME280;63459;51.456;-0.916;2023-02-26T03:17:37;101788.77;;;16.70;22.13
73862;BME280;63459;51.456;-0.916;2023-02-26T03:20:05;101790.30;;;15.94;22.10
73862;BME280;63459;51.456;-0.916;2023-02-26T03:24:50;101798.23;;;16.09;22.08
73862;BME280;63459;51.456;-0.916;2023-02-26T03:36:56;101798.47;;;16.95;22.05
73862;BME280;63459;51.456;-0.916;2023-02-26T03:39:24;101799.23;;;16.76;22.02
73862;BME280;63459;51.456;-0.916;2023-02-26T03:41:52;101805.62;;;16.15;22.00
73862;BME280;63459;51.456;-0.916;2023-02-26T03:44:15;101810.00;;;17.09;21.94
73862;BME280;63459;51.456;-0.916;2023-02-26T03:46:44;101805.61;;;17.12;21.92
73862;BME280;63459;51.456;-0.916;2023-02-26T03:49:12;101799.84;;;16.71;21.85
73862;BME280;63459;51.456;-0.916;2023-02-26T03:51:29;101804.79;;;16.72;21.81
73862;BME280;63459;51.456;-0.916;2023-02-26T03:56:23;101812.42;;;16.96;21.75
73862;BME280;63459;51.456;-0.916;2023-02-26T03:58:46;101817.42;;;16.76;21.71
73862;BME280;63459;51.456;-0.916;2023-02-26T04:01:13;101818.43;;;17.15;21.67
73862;BME280;63459;51.456;-0.916;2023-02-26T04:03:40;101814.32;;;16.86;21.68
73862;BME280;63459;51.456;-0.916;2023-02-26T04:06:01;101818.96;;;16.81;21.66
73862;BME280;63459;51.456;-0.916;2023-02-26T04:08:28;101817.86;;;16.73;21.68
73862;BME280;63459;51.456;-0.916;2023-02-26T04:10:55;101819.63;;;16.29;21.64
73862;BME280;63459;51.456;-0.916;2023-02-26T04:13:17;101824.37;;;16.46;21.64
73862;BME280;63459;51.456;-0.916;2023-02-26T04:15:42;101820.22;;;16.63;21.61
73862;BME280;63459;51.456;-0.916;2023-02-26T04:18:08;101820.93;;;16.55;21.60
73862;BME280;63459;51.456;-0.916;2023-02-26T04:22:59;101822.27;;;16.71;21.58
73862;BME280;63459;51.456;-0.916;2023-02-26T04:27:50;101823.35;;;16.37;21.59
73862;BME280;63459;51.456;-0.916;2023-02-26T04:32:41;101826.39;;;16.36;21.55
73862;BME280;63459;51.456;-0.916;2023-02-26T04:35:07;101830.02;;;16.08;21.59
73862;BME280;63459;51.456;-0.916;2023-02-26T04:37:31;101842.83;;;15.86;21.59
73862;BME280;63459;51.456;-0.916;2023-02-26T04:39:57;101838.34;;;15.98;21.64
73862;BME280;63459;51.456;-0.916;2023-02-26T04:42:22;101840.44;;;16.57;21.68
73862;BME280;63459;51.456;-0.916;2023-02-26T04:44:48;101844.97;;;16.28;21.75
73862;BME280;63459;51.456;-0.916;2023-02-26T04:47:13;101844.69;;;16.23;21.79
73862;BME280;63459;51.456;-0.916;2023-02-26T04:54:30;101850.70;;;15.97;21.81
73862;BME280;63459;51.456;-0.916;2023-02-26T04:56:55;101854.86;;;16.17;21.82
73862;BME280;63459;51.456;-0.916;2023-02-26T04:59:21;101853.94;;;16.35;21.86
73862;BME280;63459;51.456;-0.916;2023-02-26T05:01:46;101844.56;;;15.91;21.86
73862;BME280;63459;51.456;-0.916;2023-02-26T05:04:12;101855.83;;;15.88;21.88
73862;BME280;63459;51.456;-0.916;2023-02-26T05:06:37;101859.11;;;16.04;21.92
73862;BME280;63459;51.456;-0.916;2023-02-26T05:09:03;101862.18;;;16.01;21.95
73862;BME280;63459;51.456;-0.916;2023-02-26T05:11:28;101858.60;;;16.19;22.00
73862;BME280;63459;51.456;-0.916;2023-02-26T05:16:18;101862.08;;;16.08;22.07
73862;BME280;63459;51.456;-0.916;2023-02-26T05:18:44;101867.84;;;15.87;22.07
73862;BME280;63459;51.456;-0.916;2023-02-26T05:23:35;101867.66;;;16.10;22.08
73862;BME280;63459;51.456;-0.916;2023-02-26T05:26:05;101871.16;;;15.84;22.11
73862;BME280;63459;51.456;-0.916;2023-02-26T05:28:26;101878.50;;;15.86;22.11
73862;BME280;63459;51.456;-0.916;2023-02-26T05:30:51;101881.05;;;15.65;22.12
73862;BME280;63459;51.456;-0.916;2023-02-26T05:33:17;101884.93;;;15.83;22.17
73862;BME280;63459;51.456;-0.916;2023-02-26T05:35:42;101887.30;;;16.08;22.13
73862;BME280;63459;51.456;-0.916;2023-02-26T05:38:07;101886.19;;;15.85;22.14
73862;BME280;63459;51.456;-0.916;2023-02-26T05:40:33;101887.01;;;15.65;22.15
73862;BME280;63459;51.456;-0.916;2023-02-26T05:45:23;101887.40;;;15.77;22.07
73862;BME280;63459;51.456;-0.916;2023-02-26T05:47:49;101889.49;;;16.18;22.08
73862;BME280;63459;51.456;-0.916;2023-02-26T05:50:14;101888.62;;;15.74;22.09
73862;BME280;63459;51.456;-0.916;2023-02-26T05:52:40;101891.49;;;16.38;22.10
73862;BME280;63459;51.456;-0.916;2023-02-26T05:55:07;101890.10;;;15.52;22.09
73862;BME280;63459;51.456;-0.916;2023-02-26T05:59:56;101896.96;;;15.66;22.14
73862;BME280;63459;51.456;-0.916;2023-02-26T06:02:21;101895.37;;;15.89;22.12
73862;BME280;63459;51.456;-0.916;2023-02-26T06:04:47;101889.79;;;16.07;22.14
73862;BME280;63459;51.456;-0.916;2023-02-26T06:09:38;101896.43;;;16.05;22.14
73862;BME280;63459;51.456;-0.916;2023-02-26T06:14:29;101900.92;;;15.76;22.19
73862;BME280;63459;51.456;-0.916;2023-02-26T06:16:54;101905.90;;;15.52;22.21
73862;BME280;63459;51.456;-0.916;2023-02-26T06:19:20;101903.45;;;15.54;22.17
73862;BME280;63459;51.456;-0.916;2023-02-26T06:21:45;101913.78;;;15.53;22.19
73862;BME280;63459;51.456;-0.916;2023-02-26T06:24:11;101913.09;;;15.73;22.19
73862;BME280;63459;51.456;-0.916;2023-02-26T06:29:01;101914.12;;;16.35;21.61
73862;BME280;63459;51.456;-0.916;2023-02-26T06:31:27;101918.10;;;16.09;21.83
73862;BME280;63459;51.456;-0.916;2023-02-26T06:33:52;101917.12;;;16.06;21.88
73862;BME280;63459;51.456;-0.916;2023-02-26T06:36:17;101919.33;;;15.80;21.90
73862;BME280;63459;51.456;-0.916;2023-02-26T06:38:43;101926.40;;;15.94;21.95
73862;BME280;63459;51.456;-0.916;2023-02-26T06:41:08;101930.10;;;15.67;21.99
73862;BME280;63459;51.456;-0.916;2023-02-26T06:43:34;101932.38;;;15.87;21.99
73862;BME280;63459;51.456;-0.916;2023-02-26T06:46:04;101934.12;;;15.84;22.02
73862;BME280;63459;51.456;-0.916;2023-02-26T06:48:24;101944.01;;;16.07;22.01
73862;BME280;63459;51.456;-0.916;2023-02-26T06:50:50;101941.91;;;16.08;21.96
73862;BME280;63459;51.456;-0.916;2023-02-26T06:53:20;101947.06;;;16.12;21.90
73862;BME280;63459;51.456;-0.916;2023-02-26T06:55:42;101952.64;;;15.95;21.87
73862;BME280;63459;51.456;-0.916;2023-02-26T07:00:31;101956.74;;;15.68;21.89
73862;BME280;63459;51.456;-0.916;2023-02-26T07:02:57;101966.84;;;16.50;21.93
73862;BME280;63459;51.456;-0.916;2023-02-26T07:07:48;101969.07;;;15.65;21.90
73862;BME280;63459;51.456;-0.916;2023-02-26T07:10:13;101971.81;;;15.89;21.89
73862;BME280;63459;51.456;-0.916;2023-02-26T07:12:39;101974.65;;;15.92;21.87
73862;BME280;63459;51.456;-0.916;2023-02-26T07:15:05;101973.56;;;16.12;21.89
73862;BME280;63459;51.456;-0.916;2023-02-26T07:17:35;101975.46;;;15.93;21.88
73862;BME280;63459;51.456;-0.916;2023-02-26T07:19:55;101979.76;;;15.95;21.87
73862;BME280;63459;51.456;-0.916;2023-02-26T07:22:20;101989.18;;;15.59;21.82
73862;BME280;63459;51.456;-0.916;2023-02-26T07:29:36;101994.24;;;15.68;21.77
73862;BME280;63459;51.456;-0.916;2023-02-26T07:32:02;102007.61;;;16.06;21.76
73862;BME280;63459;51.456;-0.916;2023-02-26T07:34:27;102009.19;;;15.84;21.77
73862;BME280;63459;51.456;-0.916;2023-02-26T07:36:53;102016.77;;;16.35;21.70
73862;BME280;63459;51.456;-0.916;2023-02-26T07:39:18;102017.08;;;15.94;21.73
73862;BME280;63459;51.456;-0.916;2023-02-26T07:44:09;102028.70;;;16.20;21.73
73862;BME280;63459;51.456;-0.916;2023-02-26T07:46:34;102029.41;;;16.25;21.72
73862;BME280;63459;51.456;-0.916;2023-02-26T07:48:59;102035.49;;;16.30;21.67
73862;BME280;63459;51.456;-0.916;2023-02-26T07:51:25;102035.43;;;16.28;21.68
73862;BME280;63459;51.456;-0.916;2023-02-26T07:53:50;102040.15;;;16.31;21.68
73862;BME280;63459;51.456;-0.916;2023-02-26T07:58:41;102043.76;;;16.21;21.60
73862;BME280;63459;51.456;-0.916;2023-02-26T08:01:06;102039.58;;;16.47;21.57
73862;BME280;63459;51.456;-0.916;2023-02-26T08:03:31;102038.31;;;16.57;21.49
73862;BME280;63459;51.456;-0.916;2023-02-26T08:05:57;102048.19;;;16.84;21.41
73862;BME280;63459;51.456;-0.916;2023-02-26T08:08:22;102048.35;;;16.66;21.28
73862;BME280;63459;51.456;-0.916;2023-02-26T08:10:52;102048.39;;;16.49;21.23
73862;BME280;63459;51.456;-0.916;2023-02-26T08:13:13;102053.36;;;16.58;21.15
73862;BME280;63459;51.456;-0.916;2023-02-26T08:15:38;102057.07;;;16.57;21.11
73862;BME280;63459;51.456;-0.916;2023-02-26T08:18:04;102059.25;;;16.16;21.10
73862;BME280;63459;51.456;-0.916;2023-02-26T08:20:29;102067.51;;;16.63;21.01
73862;BME280;63459;51.456;-0.916;2023-02-26T08:22:55;102065.60;;;16.70;20.97
73862;BME280;63459;51.456;-0.916;2023-02-26T08:25:20;102069.82;;;16.99;20.94
73862;BME280;63459;51.456;-0.916;2023-02-26T08:27:46;102071.22;;;17.11;20.86
73862;BME280;63459;51.456;-0.916;2023-02-26T08:30:12;102077.12;;;17.14;20.85
73862;BME280;63459;51.456;-0.916;2023-02-26T08:32:36;102081.33;;;17.20;20.79
73862;BME280;63459;51.456;-0.916;2023-02-26T08:35:01;102077.44;;;16.67;20.63
73862;BME280;63459;51.456;-0.916;2023-02-26T08:37:28;102088.26;;;16.91;20.61
73862;BME280;63459;51.456;-0.916;2023-02-26T08:39:52;102087.41;;;16.96;20.67
73862;BME280;63459;51.456;-0.916;2023-02-26T08:42:18;102091.11;;;17.21;20.58
73862;BME280;63459;51.456;-0.916;2023-02-26T08:44:48;102090.11;;;16.87;20.51
73862;BME280;63459;51.456;-0.916;2023-02-26T08:47:08;102098.54;;;17.17;20.43
73862;BME280;63459;51.456;-0.916;2023-02-26T08:49:44;102099.49;;;17.01;20.29
73862;BME280;63459;51.456;-0.916;2023-02-26T08:51:59;102105.34;;;17.47;20.32
73862;BME280;63459;51.456;-0.916;2023-02-26T08:54:24;102100.09;;;17.28;20.31
73862;BME280;63459;51.456;-0.916;2023-02-26T08:56:50;102101.25;;;17.32;20.36
73862;BME280;63459;51.456;-0.916;2023-02-26T08:59:15;102105.17;;;17.36;20.40
73862;BME280;63459;51.456;-0.916;2023-02-26T09:01:40;102112.87;;;17.20;20.32
73862;BME280;63459;51.456;-0.916;2023-02-26T09:06:31;102114.99;;;17.73;20.17
73862;BME280;63459;51.456;-0.916;2023-02-26T09:08:57;102114.94;;;17.21;20.07
73862;BME280;63459;51.456;-0.916;2023-02-26T09:11:22;102117.76;;;17.63;20.03
73862;BME280;63459;51.456;-0.916;2023-02-26T09:16:12;102126.81;;;17.55;20.01
73862;BME280;63459;51.456;-0.916;2023-02-26T09:18:38;102125.08;;;17.58;19.84
73862;BME280;63459;51.456;-0.916;2023-02-26T09:21:04;102131.04;;;17.63;19.72
73862;BME280;63459;51.456;-0.916;2023-02-26T09:23:29;102133.87;;;17.40;19.63
73862;BME280;63459;51.456;-0.916;2023-02-26T09:25:54;102130.94;;;18.17;19.59
73862;BME280;63459;51.456;-0.916;2023-02-26T09:28:19;102136.07;;;17.42;19.47
73862;BME280;63459;51.456;-0.916;2023-02-26T09:30:50;102134.60;;;18.62;19.38
73862;BME280;63459;51.456;-0.916;2023-02-26T09:33:10;102135.99;;;18.10;19.27
73862;BME280;63459;51.456;-0.916;2023-02-26T09:35:35;102138.95;;;18.40;19.11
73862;BME280;63459;51.456;-0.916;2023-02-26T09:38:01;102139.72;;;18.20;19.05
73862;BME280;63459;51.456;-0.916;2023-02-26T09:40:35;102143.50;;;18.26;19.17
73862;BME280;63459;51.456;-0.916;2023-02-26T09:43:02;102144.14;;;18.30;19.11
73862;BME280;63459;51.456;-0.916;2023-02-26T09:47:46;102155.98;;;18.12;18.65
73862;BME280;63459;51.456;-0.916;2023-02-26T09:50:15;102156.49;;;18.18;18.30
73862;BME280;63459;51.456;-0.916;2023-02-26T09:52:36;102155.04;;;18.67;18.49
73862;BME280;63459;51.456;-0.916;2023-02-26T09:55:02;102154.96;;;17.78;18.25
73862;BME280;63459;51.456;-0.916;2023-02-26T09:57:29;102163.12;;;18.49;18.21
73862;BME280;63459;51.456;-0.916;2023-02-26T09:59:50;102157.81;;;18.09;18.03
73862;BME280;63459;51.456;-0.916;2023-02-26T10:02:18;102163.12;;;18.35;17.67
73862;BME280;63459;51.456;-0.916;2023-02-26T10:04:49;102162.89;;;18.17;17.61
73862;BME280;63459;51.456;-0.916;2023-02-26T10:07:15;102167.01;;;18.41;17.71
73862;BME280;63459;51.456;-0.916;2023-02-26T10:09:48;102168.30;;;18.50;17.62
73862;BME280;63459;51.456;-0.916;2023-02-26T10:14:25;102174.14;;;18.67;17.14
73862;BME280;63459;51.456;-0.916;2023-02-26T10:16:50;102173.71;;;18.75;16.88
73862;BME280;63459;51.456;-0.916;2023-02-26T10:19:15;102182.83;;;19.02;16.67
73862;BME280;63459;51.456;-0.916;2023-02-26T10:21:41;102175.78;;;18.47;16.87
73862;BME280;63459;51.456;-0.916;2023-02-26T10:24:09;102182.58;;;18.75;16.61
73862;BME280;63459;51.456;-0.916;2023-02-26T10:26:30;102193.88;;;18.59;16.48
73862;BME280;63459;51.456;-0.916;2023-02-26T10:28:59;102190.12;;;18.89;16.42
73862;BME280;63459;51.456;-0.916;2023-02-26T10:31:24;102189.83;;;18.97;16.44
73862;BME280;63459;51.456;-0.916;2023-02-26T10:36:17;102194.21;;;19.11;16.13
73862;BME280;63459;51.456;-0.916;2023-02-26T10:38:35;102200.84;;;19.21;16.15
73862;BME280;63459;51.456;-0.916;2023-02-26T10:41:04;102201.83;;;19.00;15.77
73862;BME280;63459;51.456;-0.916;2023-02-26T10:43:29;102205.13;;;19.08;15.75
73862;BME280;63459;51.456;-0.916;2023-02-26T10:46:02;102213.39;;;19.64;15.73
73862;BME280;63459;51.456;-0.916;2023-02-26T10:48:26;102210.60;;;19.43;15.57
73862;BME280;63459;51.456;-0.916;2023-02-26T10:50:49;102215.53;;;19.52;15.38
73862;BME280;63459;51.456;-0.916;2023-02-26T10:53:08;102227.92;;;19.31;15.12
73862;BME280;63459;51.456;-0.916;2023-02-26T10:55:38;102220.90;;;19.77;15.10
73862;BME280;63459;51.456;-0.916;2023-02-26T10:58:03;102228.33;;;19.35;15.00
73862;BME280;63459;51.456;-0.916;2023-02-26T11:00:24;102229.02;;;19.18;15.08
73862;BME280;63459;51.456;-0.916;2023-02-26T11:02:51;102232.23;;;19.73;15.27
73862;BME280;63459;51.456;-0.916;2023-02-26T11:05:17;102233.09;;;19.86;14.79
73862;BME280;63459;51.456;-0.916;2023-02-26T11:07:40;102233.55;;;19.52;14.81
73862;BME280;63459;51.456;-0.916;2023-02-26T11:10:17;102235.81;;;19.94;14.67
73862;BME280;63459;51.456;-0.916;2023-02-26T11:12:31;102244.05;;;19.83;14.52
73862;BME280;63459;51.456;-0.916;2023-02-26T11:14:55;102240.28;;;19.26;13.95
73862;BME280;63459;51.456;-0.916;2023-02-26T11:17:23;102240.88;;;20.14;14.03
73862;BME280;63459;51.456;-0.916;2023-02-26T11:19:51;102248.10;;;19.86;14.08
73862;BME280;63459;51.456;-0.916;2023-02-26T11:22:12;102242.86;;;20.07;13.76
73862;BME280;63459;51.456;-0.916;2023-02-26T11:24:40;102251.06;;;20.22;13.61
73862;BME280;63459;51.456;-0.916;2023-02-26T11:27:05;102254.40;;;19.94;13.58
73862;BME280;63459;51.456;-0.916;2023-02-26T11:29:34;102265.50;;;20.33;13.50
73862;BME280;63459;51.456;-0.916;2023-02-26T11:31:54;102257.12;;;20.03;13.21
73862;BME280;63459;51.456;-0.916;2023-02-26T11:34:21;102262.88;;;20.51;13.09
73862;BME280;63459;51.456;-0.916;2023-02-26T11:36:44;102260.34;;;20.56;13.01
73862;BME280;63459;51.456;-0.916;2023-02-26T11:39:15;102272.65;;;20.57;12.96
73862;BME280;63459;51.456;-0.916;2023-02-26T11:41:37;102270.20;;;20.20;12.89
73862;BME280;63459;51.456;-0.916;2023-02-26T11:44:02;102271.66;;;20.52;12.58
73862;BME280;63459;51.456;-0.916;2023-02-26T11:46:26;102263.07;;;20.32;12.38
73862;BME280;63459;51.456;-0.916;2023-02-26T11:51:19;102266.05;;;20.19;12.76
73862;BME280;63459;51.456;-0.916;2023-02-26T11:53:46;102266.04;;;20.26;12.77
73862;BME280;63459;51.456;-0.916;2023-02-26T11:56:10;102271.01;;;20.07;12.37
73862;BME280;63459;51.456;-0.916;2023-02-26T11:58:42;102267.34;;;20.07;12.66
73862;BME280;63459;51.456;-0.916;2023-02-26T12:00:58;102276.52;;;20.11;12.67
73862;BME280;63459;51.456;-0.916;2023-02-26T12:05:49;102274.80;;;20.20;12.29
73862;BME280;63459;51.456;-0.916;2023-02-26T12:08:18;102284.19;;;20.46;12.04
73862;BME280;63459;51.456;-0.916;2023-02-26T12:10:44;102275.64;;;20.70;11.97
73862;BME280;63459;51.456;-0.916;2023-02-26T12:13:10;102283.19;;;20.54;11.94
73862;BME280;63459;51.456;-0.916;2023-02-26T12:15:45;102273.22;;;20.28;11.99
73862;BME280;63459;51.456;-0.916;2023-02-26T12:18:04;102275.52;;;19.98;12.06
73862;BME280;63459;51.456;-0.916;2023-02-26T12:20:25;102279.48;;;19.91;12.12
73862;BME280;63459;51.456;-0.916;2023-02-26T12:22:49;102275.23;;;19.84;11.99
73862;BME280;63459;51.456;-0.916;2023-02-26T12:25:17;102279.09;;;19.78;12.11
73862;BME280;63459;51.456;-0.916;2023-02-26T12:27:48;102275.09;;;20.37;12.13
73862;BME280;63459;51.456;-0.916;2023-02-26T12:32:36;102274.38;;;20.54;12.36
73862;BME280;63459;51.456;-0.916;2023-02-26T12:35:05;102279.74;;;20.00;12.48
73862;BME280;63459;51.456;-0.916;2023-02-26T12:37:30;102281.50;;;19.52;12.67
73862;BME280;63459;51.456;-0.916;2023-02-26T12:39:52;102283.20;;;19.70;12.58
73862;BME280;63459;51.456;-0.916;2023-02-26T12:42:17;102278.95;;;19.75;12.48
73862;BME280;63459;51.456;-0.916;2023-02-26T12:44:44;102284.24;;;20.01;12.38
73862;BME280;63459;51.456;-0.916;2023-02-26T12:49:37;102278.64;;;20.31;12.25
73862;BME280;63459;51.456;-0.916;2023-02-26T12:52:02;102290.97;;;19.58;12.19
73862;BME280;63459;51.456;-0.916;2023-02-26T12:54:24;102296.90;;;20.11;12.19
73862;BME280;63459;51.456;-0.916;2023-02-26T12:56:55;102291.30;;;20.59;12.14
73862;BME280;63459;51.456;-0.916;2023-02-26T12:59:18;102296.18;;;20.23;12.28
73862;BME280;63459;51.456;-0.916;2023-02-26T13:01:45;102295.70;;;20.66;11.91
73862;BME280;63459;51.456;-0.916;2023-02-26T13:04:09;102298.54;;;20.62;11.87
73862;BME280;63459;51.456;-0.916;2023-02-26T13:08:53;102310.03;;;20.00;12.01
73862;BME280;63459;51.456;-0.916;2023-02-26T13:16:14;102301.37;;;20.52;11.85
73862;BME280;63459;51.456;-0.916;2023-02-26T13:20:56;102307.07;;;20.44;11.79
73862;BME280;63459;51.456;-0.916;2023-02-26T13:23:22;102304.05;;;20.64;11.88
73862;BME280;63459;51.456;-0.916;2023-02-26T13:25:47;102308.56;;;20.49;11.74
73862;BME280;63459;51.456;-0.916;2023-02-26T13:28:18;102305.33;;;20.36;11.56
73862;BME280;63459;51.456;-0.916;2023-02-26T13:30:40;102304.49;;;20.80;11.66
73862;BME280;63459;51.456;-0.916;2023-02-26T13:33:01;102310.62;;;21.11;11.59
73862;BME280;63459;51.456;-0.916;2023-02-26T13:35:28;102299.35;;;20.28;11.48
73862;BME280;63459;51.456;-0.916;2023-02-26T13:37:53;102300.05;;;20.98;11.56
73862;BME280;63459;51.456;-0.916;2023-02-26T13:42:47;102294.77;;;21.11;11.56
73862;BME280;63459;51.456;-0.916;2023-02-26T13:45:22;102300.46;;;20.33;11.58
73862;BME280;63459;51.456;-0.916;2023-02-26T13:47:45;102311.79;;;21.09;11.62
73862;BME280;63459;51.456;-0.916;2023-02-26T13:50:11;102295.38;;;20.84;11.40
73862;BME280;63459;51.456;-0.916;2023-02-26T13:54:49;102292.84;;;21.09;11.79
73862;BME280;63459;51.456;-0.916;2023-02-26T13:59:48;102304.59;;;20.85;12.01
73862;BME280;63459;51.456;-0.916;2023-02-26T14:04:31;102312.77;;;21.36;12.24
73862;BME280;63459;51.456;-0.916;2023-02-26T14:06:57;102310.01;;;20.96;12.23
73862;BME280;63459;51.456;-0.916;2023-02-26T14:09:30;102297.13;;;20.99;12.24
73862;BME280;63459;51.456;-0.916;2023-02-26T14:14:16;102298.26;;;20.71;12.25
73862;BME280;63459;51.456;-0.916;2023-02-26T14:16:39;102304.36;;;20.81;12.25
73862;BME280;63459;51.456;-0.916;2023-02-26T14:21:38;102305.17;;;20.73;12.41
73862;BME280;63459;51.456;-0.916;2023-02-26T14:23:55;102297.72;;;20.85;12.32
73862;BME280;63459;51.456;-0.916;2023-02-26T14:26:18;102305.74;;;20.15;12.40
73862;BME280;63459;51.456;-0.916;2023-02-26T14:31:20;102299.64;;;20.26;12.66
73862;BME280;63459;51.456;-0.916;2023-02-26T14:33:39;102302.02;;;20.91;12.64
73862;BME280;63459;51.456;-0.916;2023-02-26T14:35:59;102300.92;;;20.46;12.35